createdAt,value
2022-12-25T00:00:16.619Z,10.85
2022-12-25T00:01:10.636Z,10.9
2022-12-25T00:02:11.042Z,10.88
2022-12-25T00:03:11.191Z,10.85
2022-12-25T00:04:10.660Z,10.83
2022-12-25T00:05:10.608Z,10.82
2022-12-25T00:06:10.872Z,10.82
2022-12-25T00:07:10.771Z,10.84
2022-12-25T00:08:11.042Z,10.94
2022-12-25T00:09:13.650Z,10.96
2022-12-25T00:10:10.720Z,10.97
2022-12-25T00:11:10.586Z,10.93
2022-12-25T00:12:10.696Z,10.92
2022-12-25T00:13:10.978Z,10.94
2022-12-25T00:14:10.669Z,10.97
2022-12-25T00:15:10.612Z,10.99
2022-12-25T00:16:10.705Z,11
2022-12-25T00:17:11.043Z,11.02
2022-12-25T00:18:10.963Z,10.99
2022-12-25T00:19:10.682Z,10.99
2022-12-25T00:20:10.596Z,11
2022-12-25T00:21:10.840Z,11.01
2022-12-25T00:22:10.605Z,10.97
2022-12-25T00:23:10.967Z,11.01
2022-12-25T00:24:10.608Z,11
2022-12-25T00:25:13.773Z,11.04
2022-12-25T00:26:10.656Z,11.06
2022-12-25T00:27:10.732Z,11.03
2022-12-25T00:28:11.065Z,11.02
2022-12-25T00:29:10.704Z,11.04
2022-12-25T00:30:10.610Z,11.06
2022-12-25T00:31:13.731Z,11.08
2022-12-25T00:32:10.979Z,11.1
2022-12-25T00:33:10.977Z,11.08
2022-12-25T00:34:10.611Z,11.11
2022-12-25T00:35:10.603Z,11.15
2022-12-25T00:36:10.615Z,11.13
2022-12-25T00:37:10.775Z,11.14
2022-12-25T00:38:11.038Z,11.17
2022-12-25T00:39:10.725Z,11.16
2022-12-25T00:40:10.767Z,11.12
2022-12-25T00:41:10.732Z,11.08
2022-12-25T00:42:10.647Z,11.04
2022-12-25T00:43:11.111Z,11.04
2022-12-25T00:44:10.811Z,10.99
2022-12-25T00:45:10.825Z,10.99
2022-12-25T00:46:10.793Z,11.01
2022-12-25T00:47:11.044Z,10.95
2022-12-25T00:48:11.065Z,10.95
2022-12-25T00:49:10.603Z,10.93
2022-12-25T00:50:10.596Z,10.88
2022-12-25T00:51:10.732Z,10.82
2022-12-25T00:52:13.730Z,10.78
2022-12-25T00:53:10.973Z,10.73
2022-12-25T00:54:10.750Z,10.74
2022-12-25T00:55:10.592Z,10.74
2022-12-25T00:56:10.586Z,10.77
2022-12-25T00:57:10.617Z,10.8
2022-12-25T00:58:10.981Z,10.81
2022-12-25T00:59:10.604Z,10.77
2022-12-25T01:00:10.612Z,10.76
2022-12-25T01:01:10.734Z,10.74
2022-12-25T01:02:11.169Z,10.77
2022-12-25T01:03:11.023Z,10.77
2022-12-25T01:04:10.708Z,10.73
2022-12-25T01:05:10.776Z,10.72
2022-12-25T01:06:10.612Z,10.72
2022-12-25T01:07:10.803Z,10.71
2022-12-25T01:08:16.689Z,10.68
2022-12-25T01:09:10.727Z,10.61
2022-12-25T01:10:10.706Z,10.61
2022-12-25T01:11:10.818Z,10.6
2022-12-25T01:12:10.659Z,10.59
2022-12-25T01:13:10.611Z,10.56
2022-12-25T01:14:11.013Z,10.53
2022-12-25T01:15:10.981Z,10.52
2022-12-25T01:16:10.851Z,10.5
2022-12-25T01:17:11.088Z,10.49
2022-12-25T01:18:12.885Z,10.48
2022-12-25T01:19:13.646Z,10.46
2022-12-25T01:20:10.975Z,10.45
2022-12-25T01:21:10.794Z,10.44
2022-12-25T01:22:10.619Z,10.41
2022-12-25T01:23:10.605Z,10.38
2022-12-25T01:24:10.728Z,10.36
2022-12-25T01:25:10.978Z,10.37
2022-12-25T01:26:10.617Z,10.39
2022-12-25T01:27:10.696Z,10.41
2022-12-25T01:28:10.695Z,10.43
2022-12-25T01:29:10.594Z,10.43
2022-12-25T01:30:16.669Z,10.41
2022-12-25T01:31:10.840Z,10.45
2022-12-25T01:32:10.701Z,10.51
2022-12-25T01:33:10.792Z,10.51
2022-12-25T01:34:10.799Z,10.52
2022-12-25T01:35:11.050Z,10.53
2022-12-25T01:36:10.702Z,10.55
2022-12-25T01:37:10.740Z,10.52
2022-12-25T01:38:10.741Z,10.53
2022-12-25T01:39:10.603Z,10.58
2022-12-25T01:40:11.042Z,10.62
2022-12-25T01:41:13.814Z,10.66
2022-12-25T01:42:10.658Z,10.66
2022-12-25T01:43:15.537Z,10.66
2022-12-25T01:44:10.697Z,10.64
2022-12-25T01:45:10.973Z,10.63
2022-12-25T01:46:10.820Z,10.62
2022-12-25T01:47:10.596Z,10.65
2022-12-25T01:48:10.593Z,10.64
2022-12-25T01:49:10.805Z,10.67
2022-12-25T01:50:10.976Z,10.7
2022-12-25T01:51:10.600Z,10.7
2022-12-25T01:52:10.607Z,10.72
2022-12-25T01:53:10.713Z,10.73
2022-12-25T01:54:10.675Z,10.78
2022-12-25T01:55:11.058Z,10.74
2022-12-25T01:56:10.802Z,10.77
2022-12-25T01:57:13.618Z,10.69
2022-12-25T01:58:10.689Z,10.61
2022-12-25T01:59:10.761Z,10.54
2022-12-25T02:00:10.987Z,10.49
2022-12-25T02:01:10.794Z,10.33
2022-12-25T02:02:10.752Z,10.29
2022-12-25T02:03:10.746Z,10.32
2022-12-25T02:04:10.662Z,10.26
2022-12-25T02:05:11.055Z,10.28
2022-12-25T02:06:10.710Z,10.25
2022-12-25T02:07:10.756Z,10.22
2022-12-25T02:08:13.761Z,10.23
2022-12-25T02:09:10.830Z,10.22
2022-12-25T02:10:10.986Z,10.21
2022-12-25T02:11:10.707Z,10.18
2022-12-25T02:12:10.611Z,10.11
2022-12-25T02:13:10.610Z,10.06
2022-12-25T02:14:10.632Z,10.09
2022-12-25T02:15:11.050Z,10.08
2022-12-25T02:16:10.889Z,10.1
2022-12-25T02:17:10.913Z,10.11
2022-12-25T02:18:10.677Z,10.15
2022-12-25T02:19:13.699Z,10.19
2022-12-25T02:20:11.243Z,10.2
2022-12-25T02:21:10.776Z,10.19
2022-12-25T02:22:10.647Z,10.2
2022-12-25T02:23:10.728Z,10.29
2022-12-25T02:24:10.718Z,10.37
2022-12-25T02:25:10.993Z,10.4
2022-12-25T02:26:10.723Z,10.35
2022-12-25T02:27:10.668Z,10.39
2022-12-25T02:28:10.698Z,10.39
2022-12-25T02:29:10.805Z,10.4
2022-12-25T02:30:16.684Z,10.38
2022-12-25T02:31:10.741Z,10.33
2022-12-25T02:32:10.721Z,10.29
2022-12-25T02:33:10.746Z,10.24
2022-12-25T02:34:10.664Z,10.21
2022-12-25T02:35:11.062Z,10.16
2022-12-25T02:36:10.718Z,10.16
2022-12-25T02:37:10.735Z,10.13
2022-12-25T02:38:10.915Z,10.13
2022-12-25T02:39:10.725Z,10.11
2022-12-25T02:40:10.991Z,10.16
2022-12-25T02:41:13.859Z,10.26
2022-12-25T02:42:10.767Z,10.29
2022-12-25T02:43:11.033Z,10.3
2022-12-25T02:44:10.684Z,10.32
2022-12-25T02:45:11.050Z,10.34
2022-12-25T02:46:10.834Z,10.36
2022-12-25T02:47:10.746Z,10.35
2022-12-25T02:48:10.686Z,10.39
2022-12-25T02:49:10.702Z,10.35
2022-12-25T02:50:11.041Z,10.33
2022-12-25T02:51:10.695Z,10.28
2022-12-25T02:52:13.623Z,10.25
2022-12-25T02:53:10.788Z,10.18
2022-12-25T02:54:10.654Z,10.21
2022-12-25T02:55:11.079Z,10.22
2022-12-25T02:56:10.688Z,10.24
2022-12-25T02:57:10.602Z,10.25
2022-12-25T02:58:10.612Z,10.21
2022-12-25T02:59:10.739Z,10.18
2022-12-25T03:00:10.978Z,10.16
2022-12-25T03:01:10.845Z,10.18
2022-12-25T03:02:10.851Z,10.18
2022-12-25T03:03:13.663Z,10.15
2022-12-25T03:04:10.771Z,10.13
2022-12-25T03:05:11.055Z,10.11
2022-12-25T03:06:10.784Z,10.06
2022-12-25T03:07:10.693Z,10.05
2022-12-25T03:08:10.845Z,10.04
2022-12-25T03:09:10.773Z,10.11
2022-12-25T03:10:11.079Z,10.14
2022-12-25T03:11:10.796Z,10.1
2022-12-25T03:12:10.680Z,10.13
2022-12-25T03:13:10.615Z,10.14
2022-12-25T03:14:13.622Z,10.15
2022-12-25T03:15:10.971Z,10.11
2022-12-25T03:16:10.801Z,10.07
2022-12-25T03:17:10.766Z,10.06
2022-12-25T03:18:10.770Z,10.05
2022-12-25T03:19:10.697Z,10.05
2022-12-25T03:20:10.975Z,10.02
2022-12-25T03:21:10.602Z,10.02
2022-12-25T03:22:10.616Z,10
2022-12-25T03:23:10.586Z,9.98
2022-12-25T03:24:10.732Z,9.95
2022-12-25T03:25:16.689Z,9.94
2022-12-25T03:26:10.763Z,9.95
2022-12-25T03:27:10.647Z,9.98
2022-12-25T03:28:10.753Z,10
2022-12-25T03:29:10.783Z,10.02
2022-12-25T03:30:10.983Z,10.04
2022-12-25T03:31:10.626Z,10.02
2022-12-25T03:32:10.616Z,10.04
2022-12-25T03:33:36.750Z,10.08
2022-12-25T03:34:10.650Z,10.1
2022-12-25T03:35:11.055Z,10.1
2022-12-25T03:36:13.625Z,10.12
2022-12-25T03:37:10.695Z,10.14
2022-12-25T03:38:10.717Z,10.14
2022-12-25T03:39:10.799Z,10.16
2022-12-25T03:40:11.048Z,10.08
2022-12-25T03:41:10.833Z,10.07
2022-12-25T03:42:10.697Z,10.06
2022-12-25T03:43:10.803Z,10.07
2022-12-25T03:44:10.614Z,10.08
2022-12-25T03:45:10.998Z,10.11
2022-12-25T03:46:10.938Z,10.06
2022-12-25T03:47:13.760Z,10.07
2022-12-25T03:48:10.792Z,10.1
2022-12-25T03:49:10.697Z,10.04
2022-12-25T03:50:11.071Z,10.05
2022-12-25T03:51:10.695Z,10.09
2022-12-25T03:52:10.711Z,10.1
2022-12-25T03:53:10.648Z,10.12
2022-12-25T03:54:10.626Z,10.14
2022-12-25T03:55:11.052Z,10.22
2022-12-25T03:56:10.679Z,10.2
2022-12-25T03:57:10.607Z,10.19
2022-12-25T03:58:13.645Z,10.19
2022-12-25T03:59:10.677Z,10.22
2022-12-25T04:00:11.080Z,10.1
2022-12-25T04:01:10.862Z,9.99
2022-12-25T04:02:11.009Z,9.94
2022-12-25T04:03:10.787Z,9.92
2022-12-25T04:04:10.702Z,9.91
2022-12-25T04:05:11.058Z,9.9
2022-12-25T04:06:10.696Z,9.89
2022-12-25T04:07:10.723Z,9.88
2022-12-25T04:08:10.604Z,9.9
2022-12-25T04:09:13.694Z,9.91
2022-12-25T04:10:10.987Z,9.94
2022-12-25T04:11:10.685Z,9.92
2022-12-25T04:12:10.634Z,9.98
2022-12-25T04:13:10.710Z,10.07
2022-12-25T04:14:10.699Z,10.07
2022-12-25T04:15:10.990Z,10.08
2022-12-25T04:16:10.739Z,10.14
2022-12-25T04:17:10.586Z,10.14
2022-12-25T04:18:10.743Z,10.08
2022-12-25T04:19:10.835Z,10.02
2022-12-25T04:20:16.708Z,9.99
2022-12-25T04:21:10.817Z,10.02
2022-12-25T04:22:10.693Z,10.01
2022-12-25T04:23:10.636Z,10
2022-12-25T04:24:10.644Z,10.01
2022-12-25T04:25:10.752Z,10.03
2022-12-25T04:26:10.687Z,10.05
2022-12-25T04:27:10.746Z,10.01
2022-12-25T04:28:10.612Z,9.98
2022-12-25T04:29:10.821Z,9.94
2022-12-25T04:30:10.995Z,9.97
2022-12-25T04:31:13.711Z,9.98
2022-12-25T04:32:10.731Z,9.97
2022-12-25T04:33:10.610Z,9.97
2022-12-25T04:34:10.606Z,9.98
2022-12-25T04:35:11.065Z,9.94
2022-12-25T04:36:10.696Z,9.92
2022-12-25T04:37:10.617Z,9.97
2022-12-25T04:38:10.606Z,9.95
2022-12-25T04:39:10.794Z,10
2022-12-25T04:40:10.994Z,9.99
2022-12-25T04:41:10.623Z,10.01
2022-12-25T04:42:10.706Z,9.98
2022-12-25T04:43:10.688Z,10.01
2022-12-25T04:44:10.593Z,10.04
2022-12-25T04:45:11.066Z,10.03
2022-12-25T04:46:10.805Z,10.08
2022-12-25T04:47:13.665Z,10.1
2022-12-25T04:48:10.719Z,10.1
2022-12-25T04:49:10.656Z,10.16
2022-12-25T04:50:11.067Z,10.19
2022-12-25T04:51:10.696Z,10.22
2022-12-25T04:52:10.617Z,10.22
2022-12-25T04:53:10.623Z,10.24
2022-12-25T04:54:10.697Z,10.29
2022-12-25T04:55:11.061Z,10.3
2022-12-25T04:56:10.615Z,10.26
2022-12-25T04:57:10.707Z,10.3
2022-12-25T04:58:13.744Z,10.28
2022-12-25T04:59:10.593Z,10.28
2022-12-25T05:00:11.052Z,10.32
2022-12-25T05:01:10.812Z,10.32
2022-12-25T05:02:10.881Z,10.37
2022-12-25T05:03:10.812Z,10.37
2022-12-25T05:04:10.629Z,10.34
2022-12-25T05:05:11.076Z,10.31
2022-12-25T05:06:10.846Z,10.33
2022-12-25T05:07:10.789Z,10.31
2022-12-25T05:08:10.688Z,10.29
2022-12-25T05:09:13.643Z,10.33
2022-12-25T05:10:10.984Z,10.28
2022-12-25T05:11:10.603Z,10.3
2022-12-25T05:12:10.661Z,10.31
2022-12-25T05:13:10.608Z,10.31
2022-12-25T05:14:10.607Z,10.36
2022-12-25T05:15:10.772Z,10.37
2022-12-25T05:16:10.828Z,10.4
2022-12-25T05:17:10.775Z,10.33
2022-12-25T05:18:10.622Z,10.39
2022-12-25T05:19:10.714Z,10.34
2022-12-25T05:20:10.989Z,10.31
2022-12-25T05:21:10.770Z,10.27
2022-12-25T05:22:10.675Z,10.25
2022-12-25T05:23:10.593Z,10.23
2022-12-25T05:24:10.740Z,10.21
2022-12-25T05:25:16.674Z,10.19
2022-12-25T05:26:10.690Z,10.16
2022-12-25T05:27:10.609Z,10.23
2022-12-25T05:28:10.620Z,10.21
2022-12-25T05:29:11.000Z,10.22
2022-12-25T05:30:10.717Z,10.25
2022-12-25T05:31:10.768Z,10.2
2022-12-25T05:32:10.591Z,10.19
2022-12-25T05:33:10.627Z,10.2
2022-12-25T05:34:10.984Z,10.2
2022-12-25T05:35:11.061Z,10.2
2022-12-25T05:36:13.717Z,10.2
2022-12-25T05:37:10.793Z,10.21
2022-12-25T05:38:10.602Z,10.25
2022-12-25T05:39:11.101Z,10.26
2022-12-25T05:40:10.704Z,10.29
2022-12-25T05:41:10.622Z,10.29
2022-12-25T05:42:10.675Z,10.31
2022-12-25T05:43:10.613Z,10.33
2022-12-25T05:44:11.193Z,10.31
2022-12-25T05:45:10.689Z,10.31
2022-12-25T05:46:10.793Z,10.38
2022-12-25T05:47:10.729Z,10.41
2022-12-25T05:48:10.740Z,10.38
2022-12-25T05:49:10.984Z,10.41
2022-12-25T05:50:10.988Z,10.39
2022-12-25T05:51:10.836Z,10.4
2022-12-25T05:52:13.646Z,10.41
2022-12-25T05:53:10.687Z,10.44
2022-12-25T05:54:11.056Z,10.46
2022-12-25T05:55:10.699Z,10.46
2022-12-25T05:56:10.741Z,10.44
2022-12-25T05:57:10.600Z,10.45
2022-12-25T05:58:10.761Z,10.43
2022-12-25T05:59:10.991Z,10.42
2022-12-25T06:00:10.611Z,10.43
2022-12-25T06:01:10.708Z,10.43
2022-12-25T06:02:10.734Z,10.37
2022-12-25T06:03:13.905Z,10.36
2022-12-25T06:04:12.970Z,10.3
2022-12-25T06:05:10.988Z,10.27
2022-12-25T06:06:10.845Z,10.28
2022-12-25T06:07:10.688Z,10.29
2022-12-25T06:08:10.739Z,10.31
2022-12-25T06:09:11.012Z,10.29
2022-12-25T06:10:10.639Z,10.28
2022-12-25T06:11:10.809Z,10.22
2022-12-25T06:12:10.605Z,10.25
2022-12-25T06:13:10.831Z,10.27
2022-12-25T06:14:16.686Z,10.27
2022-12-25T06:15:10.687Z,10.28
2022-12-25T06:16:10.801Z,10.27
2022-12-25T06:17:10.671Z,10.24
2022-12-25T06:18:10.747Z,10.24
2022-12-25T06:19:10.976Z,10.25
2022-12-25T06:20:11.146Z,10.24
2022-12-25T06:21:10.710Z,10.24
2022-12-25T06:22:10.623Z,10.22
2022-12-25T06:23:10.696Z,10.12
2022-12-25T06:24:13.468Z,10.03
2022-12-25T06:25:13.630Z,9.98
2022-12-25T06:26:10.692Z,9.95
2022-12-25T06:27:10.601Z,9.97
2022-12-25T06:28:10.770Z,9.91
2022-12-25T06:29:10.989Z,9.87
2022-12-25T06:30:10.629Z,9.79
2022-12-25T06:31:10.673Z,9.73
2022-12-25T06:32:10.743Z,9.67
2022-12-25T06:33:10.800Z,9.59
2022-12-25T06:34:11.056Z,9.59
2022-12-25T06:35:10.983Z,9.61
2022-12-25T06:36:13.650Z,9.62
2022-12-25T06:37:10.696Z,9.61
2022-12-25T06:38:10.596Z,9.54
2022-12-25T06:39:11.069Z,9.47
2022-12-25T06:40:10.815Z,9.44
2022-12-25T06:41:10.782Z,9.45
2022-12-25T06:42:10.597Z,9.5
2022-12-25T06:43:10.724Z,9.56
2022-12-25T06:44:10.998Z,9.61
2022-12-25T06:45:10.738Z,9.65
2022-12-25T06:46:10.675Z,9.66
2022-12-25T06:47:13.655Z,9.64
2022-12-25T06:48:10.822Z,9.62
2022-12-25T06:49:11.049Z,9.61
2022-12-25T06:50:10.982Z,9.61
2022-12-25T06:51:10.599Z,9.61
2022-12-25T06:52:10.708Z,9.56
2022-12-25T06:53:10.604Z,9.56
2022-12-25T06:54:11.054Z,9.53
2022-12-25T06:55:10.666Z,9.49
2022-12-25T06:56:10.796Z,9.5
2022-12-25T06:57:10.605Z,9.56
2022-12-25T06:58:10.622Z,9.53
2022-12-25T06:59:11.049Z,9.46
2022-12-25T07:00:10.697Z,9.47
2022-12-25T07:01:10.747Z,9.51
2022-12-25T07:02:10.911Z,9.54
2022-12-25T07:03:13.678Z,9.55
2022-12-25T07:04:10.985Z,9.63
2022-12-25T07:05:10.981Z,9.67
2022-12-25T07:06:10.704Z,9.73
2022-12-25T07:07:10.739Z,9.76
2022-12-25T07:08:10.687Z,9.84
2022-12-25T07:09:10.988Z,9.85
2022-12-25T07:10:10.745Z,9.96
2022-12-25T07:11:10.686Z,9.94
2022-12-25T07:12:10.606Z,9.92
2022-12-25T07:13:10.592Z,9.94
2022-12-25T07:14:23.215Z,9.93
2022-12-25T07:15:10.598Z,9.88
2022-12-25T07:16:10.645Z,9.85
2022-12-25T07:17:10.714Z,9.84
2022-12-25T07:18:10.625Z,9.87
2022-12-25T07:19:10.971Z,9.93
2022-12-25T07:20:10.983Z,9.9
2022-12-25T07:21:10.624Z,9.89
2022-12-25T07:22:10.737Z,9.92
2022-12-25T07:23:10.670Z,9.95
2022-12-25T07:24:11.051Z,10
2022-12-25T07:25:13.634Z,10.02
2022-12-25T07:26:10.800Z,10.04
2022-12-25T07:27:10.718Z,10.04
2022-12-25T07:28:10.705Z,10.05
2022-12-25T07:29:10.984Z,10.07
2022-12-25T07:30:10.776Z,10.13
2022-12-25T07:31:10.709Z,10.12
2022-12-25T07:32:10.857Z,10.15
2022-12-25T07:33:10.716Z,10.2
2022-12-25T07:34:11.068Z,10.23
2022-12-25T07:35:10.986Z,10.27
2022-12-25T07:36:12.966Z,10.25
2022-12-25T07:37:10.614Z,10.28
2022-12-25T07:38:10.703Z,10.27
2022-12-25T07:39:11.124Z,10.26
2022-12-25T07:40:10.575Z,10.22
2022-12-25T07:41:10.650Z,10.19
2022-12-25T07:42:10.679Z,10.17
2022-12-25T07:43:10.810Z,10.14
2022-12-25T07:44:10.758Z,10.17
2022-12-25T07:45:10.638Z,10.17
2022-12-25T07:46:13.814Z,10.21
2022-12-25T07:47:10.778Z,10.21
2022-12-25T07:48:16.428Z,10.18
2022-12-25T07:49:11.048Z,10.12
2022-12-25T07:50:10.972Z,10.13
2022-12-25T07:51:10.688Z,10.14
2022-12-25T07:52:10.621Z,10.12
2022-12-25T07:53:10.711Z,10.15
2022-12-25T07:54:11.044Z,10.18
2022-12-25T07:55:10.790Z,10.2
2022-12-25T07:56:10.607Z,10.23
2022-12-25T07:57:13.616Z,10.23
2022-12-25T07:58:10.771Z,10.21
2022-12-25T07:59:10.708Z,10.21
2022-12-25T08:00:10.709Z,10.22
2022-12-25T08:01:10.684Z,10.22
2022-12-25T08:02:11.259Z,10.24
2022-12-25T08:03:10.836Z,10.24
2022-12-25T08:04:11.117Z,10.24
2022-12-25T08:05:10.693Z,10.21
2022-12-25T08:06:10.713Z,10.18
2022-12-25T08:07:10.693Z,10.15
2022-12-25T08:08:13.648Z,10.11
2022-12-25T08:09:11.113Z,10.12
2022-12-25T08:10:10.600Z,10.08
2022-12-25T08:11:10.703Z,10.12
2022-12-25T08:12:10.576Z,10.15
2022-12-25T08:13:14.430Z,10.2
2022-12-25T08:14:10.969Z,10.26
2022-12-25T08:15:10.710Z,10.34
2022-12-25T08:16:10.756Z,10.4
2022-12-25T08:17:11.072Z,10.45
2022-12-25T08:18:10.747Z,10.56
2022-12-25T08:19:16.636Z,10.6
2022-12-25T08:20:10.716Z,10.66
2022-12-25T08:21:10.744Z,10.74
2022-12-25T08:22:10.683Z,10.82
2022-12-25T08:23:10.680Z,10.83
2022-12-25T08:24:11.035Z,10.92
2022-12-25T08:25:10.614Z,10.96
2022-12-25T08:26:10.578Z,11
2022-12-25T08:27:10.602Z,11
2022-12-25T08:28:10.724Z,11.06
2022-12-25T08:29:10.979Z,11.11
2022-12-25T08:30:13.658Z,11.1
2022-12-25T08:31:10.756Z,11.06
2022-12-25T08:32:11.040Z,11.01
2022-12-25T08:33:10.705Z,10.98
2022-12-25T08:34:10.968Z,10.87
2022-12-25T08:35:10.802Z,10.76
2022-12-25T08:36:10.672Z,10.75
2022-12-25T08:37:10.724Z,10.64
2022-12-25T08:38:10.699Z,10.57
2022-12-25T08:39:11.072Z,10.53
2022-12-25T08:40:10.771Z,10.46
2022-12-25T08:41:13.683Z,10.43
2022-12-25T08:42:10.769Z,10.4
2022-12-25T08:43:10.634Z,10.4
2022-12-25T08:44:11.036Z,10.44
2022-12-25T08:45:10.797Z,10.41
2022-12-25T08:46:10.853Z,10.39
2022-12-25T08:47:10.974Z,10.38
2022-12-25T08:48:10.794Z,10.43
2022-12-25T08:49:10.972Z,10.48
2022-12-25T08:50:10.756Z,10.5
2022-12-25T08:51:10.614Z,10.56
2022-12-25T08:52:13.724Z,10.59
2022-12-25T08:53:10.691Z,10.59
2022-12-25T08:54:10.972Z,10.6
2022-12-25T08:55:10.699Z,10.59
2022-12-25T08:56:10.611Z,10.63
2022-12-25T08:57:10.597Z,10.65
2022-12-25T08:58:10.699Z,10.67
2022-12-25T08:59:10.728Z,10.66
2022-12-25T09:00:10.763Z,10.67
2022-12-25T09:01:10.788Z,10.67
2022-12-25T09:02:11.253Z,10.67
2022-12-25T09:03:10.679Z,10.66
2022-12-25T09:04:10.969Z,10.67
2022-12-25T09:05:10.611Z,10.64
2022-12-25T09:06:10.761Z,10.59
2022-12-25T09:07:10.817Z,10.59
2022-12-25T09:08:13.756Z,10.59
2022-12-25T09:09:10.708Z,10.59
2022-12-25T09:10:10.703Z,10.56
2022-12-25T09:11:10.710Z,10.57
2022-12-25T09:12:10.715Z,10.56
2022-12-25T09:13:10.676Z,10.56
2022-12-25T09:14:11.713Z,10.55
2022-12-25T09:15:10.746Z,10.52
2022-12-25T09:16:10.871Z,10.53
2022-12-25T09:17:11.045Z,10.63
2022-12-25T09:18:10.792Z,10.72
2022-12-25T09:19:16.650Z,10.76
2022-12-25T09:20:10.804Z,10.78
2022-12-25T09:21:10.819Z,10.79
2022-12-25T09:22:10.597Z,10.78
2022-12-25T09:23:14.014Z,10.77
2022-12-25T09:24:10.965Z,10.82
2022-12-25T09:25:13.723Z,10.84
2022-12-25T09:26:10.789Z,10.88
2022-12-25T09:27:10.683Z,10.93
2022-12-25T09:28:10.613Z,10.95
2022-12-25T09:29:10.980Z,10.99
2022-12-25T09:30:10.802Z,11.03
2022-12-25T09:31:10.669Z,11.07
2022-12-25T09:32:11.063Z,11.1
2022-12-25T09:33:10.712Z,11.19
2022-12-25T09:34:16.953Z,11.17
2022-12-25T09:35:10.809Z,11.13
2022-12-25T09:36:10.750Z,11.12
2022-12-25T09:37:10.680Z,11.11
2022-12-25T09:38:10.595Z,11.12
2022-12-25T09:39:11.039Z,11.12
2022-12-25T09:40:10.675Z,11.15
2022-12-25T09:41:13.737Z,11.17
2022-12-25T09:42:10.798Z,11.2
2022-12-25T09:43:10.612Z,11.15
2022-12-25T09:44:11.033Z,11.17
2022-12-25T09:45:10.717Z,11.18
2022-12-25T09:46:10.651Z,11.15
2022-12-25T09:47:10.975Z,11.13
2022-12-25T09:48:10.757Z,11.11
2022-12-25T09:49:10.984Z,11.05
2022-12-25T09:50:10.784Z,10.97
2022-12-25T09:51:10.759Z,10.92
2022-12-25T09:52:13.756Z,10.94
2022-12-25T09:53:10.710Z,10.99
2022-12-25T09:54:11.045Z,11.04
2022-12-25T09:55:14.809Z,11.03
2022-12-25T09:56:10.616Z,11.02
2022-12-25T09:57:10.603Z,11.04
2022-12-25T09:58:10.602Z,11.07
2022-12-25T09:59:11.039Z,11.11
2022-12-25T10:00:10.822Z,11.16
2022-12-25T10:01:10.856Z,11.18
2022-12-25T10:02:11.032Z,11.23
2022-12-25T10:03:13.847Z,11.32
2022-12-25T10:04:10.982Z,11.39
2022-12-25T10:05:10.807Z,11.48
2022-12-25T10:06:10.610Z,11.51
2022-12-25T10:07:10.715Z,11.62
2022-12-25T10:08:10.801Z,11.65
2022-12-25T10:09:10.997Z,11.7
2022-12-25T10:10:10.603Z,11.76
2022-12-25T10:11:10.619Z,11.82
2022-12-25T10:12:10.577Z,11.88
2022-12-25T10:13:10.819Z,11.96
2022-12-25T10:14:16.758Z,12
2022-12-25T10:15:10.827Z,11.98
2022-12-25T10:16:10.602Z,11.98
2022-12-25T10:17:11.045Z,12.07
2022-12-25T10:18:10.670Z,12.13
2022-12-25T10:19:10.698Z,12.22
2022-12-25T10:20:10.618Z,12.35
2022-12-25T10:21:13.177Z,12.31
2022-12-25T10:22:10.709Z,12.27
2022-12-25T10:23:10.735Z,12.35
2022-12-25T10:24:10.973Z,12.39
2022-12-25T10:25:13.613Z,12.41
2022-12-25T10:26:10.685Z,12.42
2022-12-25T10:27:10.604Z,12.43
2022-12-25T10:28:10.721Z,12.45
2022-12-25T10:29:10.968Z,12.48
2022-12-25T10:30:10.661Z,12.43
2022-12-25T10:31:10.746Z,12.38
2022-12-25T10:32:11.036Z,12.28
2022-12-25T10:33:16.633Z,12.22
2022-12-25T10:34:11.044Z,12.25
2022-12-25T10:35:10.671Z,12.25
2022-12-25T10:36:13.772Z,12.22
2022-12-25T10:37:10.687Z,12.18
2022-12-25T10:38:10.678Z,12.19
2022-12-25T10:39:10.964Z,12.16
2022-12-25T10:40:10.601Z,12.15
2022-12-25T10:41:10.601Z,12.21
2022-12-25T10:42:10.590Z,12.27
2022-12-25T10:43:10.687Z,12.31
2022-12-25T10:44:10.600Z,12.35
2022-12-25T10:45:10.596Z,12.4
2022-12-25T10:46:10.783Z,12.46
2022-12-25T10:47:16.761Z,12.58
2022-12-25T10:48:10.791Z,12.67
2022-12-25T10:49:11.040Z,12.73
2022-12-25T10:50:10.670Z,12.8
2022-12-25T10:51:10.587Z,12.85
2022-12-25T10:52:10.620Z,12.89
2022-12-25T10:53:13.613Z,12.86
2022-12-25T10:54:10.973Z,12.89
2022-12-25T10:55:10.587Z,12.89
2022-12-25T10:56:10.602Z,12.91
2022-12-25T10:57:10.597Z,12.99
2022-12-25T10:58:10.668Z,13.08
2022-12-25T10:59:10.967Z,13.12
2022-12-25T11:00:10.707Z,13.16
2022-12-25T11:01:10.666Z,13.17
2022-12-25T11:02:10.931Z,13.16
2022-12-25T11:03:10.899Z,13.12
2022-12-25T11:04:10.804Z,13.14
2022-12-25T11:05:10.715Z,13.18
2022-12-25T11:06:10.760Z,13.2
2022-12-25T11:07:10.738Z,13.21
2022-12-25T11:08:10.832Z,13.32
2022-12-25T11:09:16.780Z,13.38
2022-12-25T11:10:10.590Z,13.52
2022-12-25T11:11:10.586Z,13.58
2022-12-25T11:12:10.579Z,13.64
2022-12-25T11:13:10.632Z,13.53
2022-12-25T11:14:11.043Z,13.44
2022-12-25T11:15:10.623Z,13.36
2022-12-25T11:16:10.843Z,13.32
2022-12-25T11:17:11.048Z,13.27
2022-12-25T11:18:10.796Z,13.22
2022-12-25T11:19:11.043Z,13.21
2022-12-25T11:20:13.637Z,13.25
2022-12-25T11:21:10.794Z,13.29
2022-12-25T11:22:10.616Z,13.31
2022-12-25T11:23:10.739Z,13.28
2022-12-25T11:24:10.965Z,13.27
2022-12-25T11:25:10.716Z,13.32
2022-12-25T11:26:10.603Z,13.36
2022-12-25T11:27:10.600Z,13.39
2022-12-25T11:28:10.613Z,13.42
2022-12-25T11:29:10.793Z,13.42
2022-12-25T11:30:15.874Z,13.33
2022-12-25T11:31:13.889Z,13.33
2022-12-25T11:32:10.964Z,13.34
2022-12-25T11:33:10.699Z,13.35
2022-12-25T11:34:10.980Z,13.27
2022-12-25T11:35:10.792Z,13.45
2022-12-25T11:36:10.699Z,13.53
2022-12-25T11:37:10.708Z,13.55
2022-12-25T11:38:10.694Z,13.53
2022-12-25T11:39:11.041Z,13.52
2022-12-25T11:40:10.612Z,13.51
2022-12-25T11:41:10.738Z,13.6
2022-12-25T11:42:13.818Z,13.63
2022-12-25T11:43:10.709Z,13.68
2022-12-25T11:44:11.048Z,13.71
2022-12-25T11:45:10.825Z,13.63
2022-12-25T11:46:10.704Z,13.6
2022-12-25T11:47:11.044Z,13.6
2022-12-25T11:48:10.714Z,13.62
2022-12-25T11:49:11.050Z,13.58
2022-12-25T11:50:10.829Z,13.65
2022-12-25T11:51:10.795Z,13.58
2022-12-25T11:52:10.699Z,13.57
2022-12-25T11:53:13.643Z,13.6
2022-12-25T11:54:10.715Z,13.57
2022-12-25T11:55:10.607Z,13.57
2022-12-25T11:56:10.671Z,13.53
2022-12-25T11:57:10.605Z,13.44
2022-12-25T11:58:10.707Z,13.43
2022-12-25T11:59:16.366Z,13.43
2022-12-25T12:00:10.683Z,13.48
2022-12-25T12:01:10.615Z,13.45
2022-12-25T12:02:11.101Z,13.42
2022-12-25T12:03:10.905Z,13.41
2022-12-25T12:04:11.005Z,13.45
2022-12-25T12:05:10.746Z,13.46
2022-12-25T12:06:10.788Z,13.51
2022-12-25T12:07:10.602Z,13.57
2022-12-25T12:08:10.785Z,13.59
2022-12-25T12:09:14.025Z,13.57
2022-12-25T12:10:10.599Z,13.59
2022-12-25T12:11:10.743Z,13.63
2022-12-25T12:12:10.652Z,13.64
2022-12-25T12:13:10.612Z,13.68
2022-12-25T12:14:11.065Z,13.69
2022-12-25T12:15:10.735Z,13.65
2022-12-25T12:16:10.776Z,13.66
2022-12-25T12:17:11.026Z,13.69
2022-12-25T12:18:10.705Z,13.66
2022-12-25T12:19:11.052Z,13.65
2022-12-25T12:20:13.610Z,13.62
2022-12-25T12:21:10.825Z,13.64
2022-12-25T12:22:10.804Z,13.74
2022-12-25T12:23:10.756Z,13.76
2022-12-25T12:24:10.966Z,13.73
2022-12-25T12:25:10.673Z,13.64
2022-12-25T12:26:10.710Z,13.59
2022-12-25T12:27:10.669Z,13.35
2022-12-25T12:28:10.587Z,13.37
2022-12-25T12:29:11.044Z,13.27
2022-12-25T12:30:10.885Z,13.19
2022-12-25T12:31:13.814Z,13.15
2022-12-25T12:32:10.985Z,13.06
2022-12-25T12:33:10.757Z,13.07
2022-12-25T12:34:11.042Z,13.18
2022-12-25T12:35:10.792Z,13.1
2022-12-25T12:36:10.600Z,13.01
2022-12-25T12:37:10.628Z,12.96
2022-12-25T12:38:10.591Z,12.91
2022-12-25T12:39:10.964Z,12.93
2022-12-25T12:40:10.884Z,12.97
2022-12-25T12:41:10.612Z,12.97
2022-12-25T12:42:10.579Z,12.97
2022-12-25T12:43:10.590Z,12.99
2022-12-25T12:44:11.041Z,13
2022-12-25T12:45:14.726Z,13.06
2022-12-25T12:46:10.810Z,13.08
2022-12-25T12:47:16.991Z,13.15
2022-12-25T12:48:10.709Z,13.16
2022-12-25T12:49:10.710Z,13.19
2022-12-25T12:50:10.799Z,13.23
2022-12-25T12:51:10.775Z,13.28
2022-12-25T12:52:10.820Z,13.3
2022-12-25T12:53:10.762Z,13.31
2022-12-25T12:54:11.084Z,13.35
2022-12-25T12:55:10.667Z,13.34
2022-12-25T12:56:10.678Z,13.36
2022-12-25T12:57:10.609Z,13.37
2022-12-25T12:58:10.611Z,13.39